Laurel, Maryland
Current Conditions -  °F | °C
As of 12:12 PM on Friday 28 Nov 2014 (Local Time) from KFME Reporting Station
Scattered Clouds Scattered Clouds  
Wind Chill: 32°   Ceiling: Unl
Heat Index: 39°   Visibility: 10mi
Dew Point: 21°   Wind: 10mph
Humidity: 49%   Direction: 310°NW
Pressure: 30.3"   Gusts: 18mph
Location:  39.1°N, 76.86°W
Report Text: KFME 281712Z AUTO 31009G16KT 10SM SCT049 04/M06 A3030 RMK AO1
Loading
Personal Weather Stations






























Interactive Weather Map New forecast layout! Learn more

10-Day Weather Forecast

Advertisements
Track Severe Weather on mobile